Date,TemperatureHighF,TemperatureAvgF,TemperatureLowF,DewpointHighF,DewpointAvgF,DewpointLowF,HumidityHigh,HumidityAvg,HumidityLow,PressureMaxIn,PressureMinIn,WindSpeedMaxMPH,WindSpeedAvgMPH,GustSpeedMaxMPH,PrecipitationSumIn
2013-8-1,73.4,62.7,52.0,53.5,51.3,46.9,85,68,45,30.08,29.96,10,0,10,0.00
2013-8-2,86.8,63.9,44.1,52.8,47.0,42.0,96,61,23,30.11,29.92,10,0,10,0.00
2013-8-3,93.4,69.1,48.1,54.6,49.5,39.2,93,57,17,30.04,29.83,9,0,9,0.00
2013-8-4,96.3,71.9,50.8,55.0,50.8,43.6,91,55,17,29.96,29.78,9,0,9,0.00
2013-8-5,95.5,73.4,53.5,59.8,53.0,47.6,90,55,20,29.94,29.78,9,0,9,0.00
2013-8-6,97.4,74.1,54.6,63.9,54.6,46.8,90,56,18,29.93,29.76,7,0,8,0.00
2013-8-7,88.0,71.0,58.1,64.1,58.3,54.6,89,67,34,29.96,29.84,10,0,11,0.01
2013-8-8,81.6,65.9,51.8,63.7,56.1,50.1,96,74,42,29.97,29.82,6,0,6,0.00
2013-8-9,83.7,67.4,52.5,63.9,56.2,50.3,95,70,42,29.91,29.81,9,0,10,0.00
2013-8-10,82.2,65.3,53.4,62.5,55.4,46.0,97,73,31,30.02,29.90,13,0,13,0.04
2013-8-11,85.9,66.0,49.2,58.1,53.4,47.5,96,69,32,30.06,29.88,9,0,10,0.00
2013-8-12,90.0,69.2,51.0,58.2,53.5,49.0,96,63,27,29.99,29.87,10,1,10,0.00
2013-8-13,94.0,70.9,51.5,57.6,54.2,49.2,94,61,27,30.03,29.84,9,0,10,0.00
2013-8-14,92.6,70.3,51.4,55.9,51.1,44.3,93,58,21,29.97,29.82,10,0,11,0.00
2013-8-15,92.2,70.8,50.3,61.0,53.1,46.9,92,59,28,29.94,29.81,11,0,12,0.00
2013-8-16,93.3,74.6,57.3,62.1,57.7,54.1,91,60,32,29.95,29.85,11,0,11,0.00
2013-8-17,91.3,72.9,56.4,59.9,56.5,52.6,94,62,29,30.00,29.86,10,1,10,0.00
2013-8-18,95.0,72.5,53.8,61.1,55.4,48.6,95,61,22,30.04,29.86,12,0,12,0.00
2013-8-19,97.0,73.5,53.5,58.0,54.0,47.5,93,58,20,30.02,29.85,12,0,12,0.00
2013-8-20,93.0,76.9,53.0,64.0,56.4,50.3,92,53,27,29.97,29.78,8,0,8,0.00
2013-8-21,89.6,73.7,57.6,67.5,56.6,49.5,85,58,28,29.87,29.73,8,0,8,0.00
2013-8-22,83.0,66.1,56.4,64.3,56.7,50.1,93,73,42,29.92,29.80,10,0,10,0.04
2013-8-23,87.3,67.2,48.1,58.0,53.4,46.5,97,67,32,29.93,29.75,10,0,12,0.00
2013-8-24,85.2,67.0,50.1,56.0,52.6,47.4,97,64,29,29.86,29.72,10,0,11,0.00
2013-8-25,74.7,64.3,59.3,63.2,58.7,54.7,96,83,60,29.90,29.82,7,0,7,0.28
2013-8-26,82.5,66.7,54.9,60.3,55.2,49.3,97,71,35,29.93,29.86,8,0,8,0.00
2013-8-27,88.0,66.4,48.5,57.4,52.2,46.9,97,66,31,29.93,29.72,11,0,11,0.00
2013-8-28,89.5,68.2,50.8,58.4,53.5,48.6,94,64,30,29.86,29.75,10,0,10,0.00
2013-8-29,88.1,70.5,56.3,60.2,56.9,53.6,94,66,32,30.05,29.84,12,0,12,0.00
2013-8-30,89.0,69.9,54.6,61.0,57.2,52.8,96,68,34,30.09,29.90,9,0,9,0.00
2013-8-31,95.3,71.1,52.1,60.8,56.1,50.4,97,65,27,29.97,29.73,9,1,9,0.00